Главная страница
METAR-TAF:

METAR-TAF

Аэропорты :

Воронеж, Россия

широта: 51-39N, долгота: 039-15E, высота над уровнем моря: 154 м

Текущие метеонаблюдения

Эта сводка был подготовлена 19 минут назад, в 07:00 UTC
Ветер 10 Узел от юго-восточный
Температура 17°C
Влажность 34%
Давление 1020 hPa
Видимость 10 км и более
Нет облачности ниже 1500 м, и нет кучево-дождевой облачности

METAR: UUOO 290700Z 13005MPS CAVOK 17/01 Q1020 R12/090057 NOSIG RMK QFE751

Время: 10:19 (07:19 UTC)

Прогноз

Эта сводка был подготовлена 2 часа и 19 минут назад, в 05:00 UTC
Прогноз действительный с 29-го 06 UTC до 29-го 15 UTC
Ветер 12 Узел от юго-восточный
Видимость 10 км и более
Нет облачности ниже 1500 м, и нет кучево-дождевой облачности

TAF: UUOO 290500Z 2906/2915 13006MPS CAVOK

Метеонаблюдения и прогнозы для более 4000 аэропортов (сводки METAR и TAF).

Имеющиеся станции представлены на карте желтыми и красными точками.

Чтобы увидеть название станции, наведите на нее мышь.

Затем щелкните, чтобы увидеть метеонаблюдения и метеопрогнозы.

Управление картой: чтобы увеличить масштаб, щелкните зеленые кнопки с черным крестиком; чтобы уменьшить масштаб, щелкните зеленую кнопку с тире; для просмотра соседних карт щелкайте зеленые стрелки.


METAR-TAF: